Aeroporto :
LOGIN :

Iscrizione | Disclaimer

   EN    FR    IT 

 










Sommario :    VFR   VFR Marginale   IFR   IFR Intensivo   IFR Molto Intensivo
Visibilità : 
Base nubi : 
>= 8 km
>= 3000ft
5 / 8 km
1000 / 3000 ft
1500m / 5 km
500 / 1000 ft
800 / 1500m
200 / 500 ft
< 800m
< 200 ft
Simboli :   Temporali  Nebbia  Neve Forte  Precipitazioni Forti  Vento > 20 kt
SIGMETs :   Varie  Temporali  Ghiacco  Turbolenza  Onda orograficha  Ceneri Vulcaniche






- Altitudine del aeroporto : 2119 ft


LERL - Central

ULTIMO METAR :
  • 261030Z 27007KT 230V320 9999 SCT015 11/06 Q1023

METARs OBSOLETI :
  • 261000Z 27006KT 200V310 9999 SCT013 10/06 Q1023
  • 260930Z 28005KT 230V330 9999 BKN013 10/07 Q1023
  • 260900Z 29006KT 240V320 9999 BKN013 09/06 Q1023
  • 260830Z 29005KT 9999 BKN014 08/07 Q1023
  • 260800Z 26003KT 220V290 9999 BKN014 08/07 Q1022

TAF N/A



MetMap, La meteo Aeronautica in un colpo d'occhio ! - Copyright ORBIFLY Dicembre 2007 - Disclaimer

ORBIFLY MET'MAP TEAM :

Programmazione e sviluppo : Alexandra Zaïnal
Concezione : Baudouin d'Aumeries
Aiuto per la programmazione : Marc-Olivier Méhu
Supporto tecnico e logistico : Manuel Goepfert
Aiuto per la traduzione : Arnaldo La Scala

Contatto : metmap@orbifly.com




FONTI E CREDITI :

   NOAA